Time;durP1;ratioP1;P1;durP2;ratioP2;P2;SDS_P1;SDS_P2;PMS_P1;PMS_P2;Temp;Humidity;BMP_temperature;BMP_pressure;BME280_temperature;BME280_humidity;BME280_pressure;Samples;Min_cycle;Max_cycle;Signal;HPM_P1;HPM_P2
2023/05/25 00:00:32;;;;;;;6.53;2.30;;;11.00;99.90;;;;;;5114473;27;20173;-32
2023/05/25 00:02:59;;;;;;;5.10;2.33;;;11.00;99.90;;;;;;5101780;28;20192;-31
2023/05/25 00:05:26;;;;;;;5.70;2.30;;;10.90;99.90;;;;;;5115688;27;20181;-30
2023/05/25 00:07:55;;;;;;;3.50;2.30;;;10.90;99.90;;;;;;5114129;27;20179;-31
2023/05/25 00:10:21;;;;;;;5.37;2.47;;;10.80;99.90;;;;;;5095112;28;20188;-31
2023/05/25 00:12:47;;;;;;;6.03;3.00;;;10.80;99.90;;;;;;5093313;28;20196;-32
2023/05/25 00:15:12;;;;;;;6.07;2.67;;;10.80;99.90;;;;;;5123569;27;20204;-31
2023/05/25 00:17:39;;;;;;;5.10;2.30;;;10.70;99.90;;;;;;5098867;28;20184;-31
2023/05/25 00:20:06;;;;;;;5.13;2.33;;;10.70;99.90;;;;;;5095325;28;20182;-31
2023/05/25 00:22:34;;;;;;;5.10;2.70;;;10.70;99.90;;;;;;5094811;28;20184;-31
2023/05/25 00:25:00;;;;;;;5.40;2.80;;;10.70;99.90;;;;;;5095157;28;20200;-31
2023/05/25 00:27:26;;;;;;;3.63;2.33;;;10.70;99.90;;;;;;5095117;28;20188;-31
2023/05/25 00:29:52;;;;;;;5.63;2.37;;;10.60;99.90;;;;;;5095981;28;20185;-32
2023/05/25 00:32:18;;;;;;;6.93;3.13;;;10.60;99.90;;;;;;5081224;28;20204;-31
2023/05/25 00:34:46;;;;;;;4.73;2.50;;;10.60;99.90;;;;;;5112659;28;20280;-31
2023/05/25 00:37:11;;;;;;;5.30;2.43;;;10.60;99.90;;;;;;5089300;28;20179;-31
2023/05/25 00:39:37;;;;;;;5.30;2.77;;;10.60;99.90;;;;;;5114756;28;20193;-31
2023/05/25 00:42:05;;;;;;;4.13;2.73;;;10.70;99.90;;;;;;5101431;28;20198;-31
2023/05/25 00:44:32;;;;;;;7.23;2.80;;;10.70;99.90;;;;;;5107517;28;20200;-32
2023/05/25 00:46:59;;;;;;;6.40;2.70;;;10.60;99.90;;;;;;5086867;28;20207;-31
2023/05/25 00:49:25;;;;;;;5.37;2.90;;;10.60;99.90;;;;;;5080018;28;20180;-31
2023/05/25 00:51:51;;;;;;;4.43;2.47;;;10.70;99.90;;;;;;5113735;28;20198;-31
2023/05/25 00:54:18;;;;;;;8.13;2.87;;;10.70;99.90;;;;;;5096908;28;20202;-31
2023/05/25 00:57:02;;;;;;;4.93;2.50;;;10.70;99.90;;;;;;5112716;28;20183;-31
2023/05/25 00:59:45;;;;;;;4.83;2.97;;;10.70;99.90;;;;;;5112820;28;20176;-31
2023/05/25 01:02:14;;;;;;;6.67;2.40;;;10.70;99.90;;;;;;5098155;28;20212;-31
2023/05/25 01:04:44;;;;;;;5.33;2.60;;;10.70;99.90;;;;;;5133043;28;20219;-31
2023/05/25 01:07:12;;;;;;;4.20;2.47;;;10.70;99.90;;;;;;5114627;28;20263;-31
2023/05/25 01:09:40;;;;;;;6.07;2.90;;;10.70;99.90;;;;;;5114616;28;20655;-31
2023/05/25 01:12:08;;;;;;;7.53;2.67;;;10.80;99.90;;;;;;5114168;28;20203;-31
2023/05/25 01:14:34;;;;;;;6.20;2.53;;;10.80;99.90;;;;;;5100577;28;20284;-31
2023/05/25 01:17:02;;;;;;;7.20;2.93;;;10.90;99.90;;;;;;5104927;28;20250;-31
2023/05/25 01:19:28;;;;;;;6.40;2.57;;;10.90;99.90;;;;;;5109509;28;20176;-31
2023/05/25 01:22:06;;;;;;;5.43;2.77;;;10.90;99.90;;;;;;5094490;28;20187;-31
2023/05/25 01:24:41;;;;;;;7.77;3.00;;;10.90;99.90;;;;;;5077856;28;20200;-32
2023/05/25 01:27:26;;;;;;;4.30;2.33;;;10.90;99.90;;;;;;5097302;28;20179;-31
2023/05/25 01:29:54;;;;;;;7.27;2.73;;;10.90;99.90;;;;;;5097477;28;20172;-31
2023/05/25 01:32:21;;;;;;;6.40;2.70;;;10.90;99.90;;;;;;5114865;27;20226;-31
2023/05/25 01:34:49;;;;;;;8.70;2.87;;;10.90;99.90;;;;;;5117434;27;20215;-31
2023/05/25 01:37:16;;;;;;;7.83;2.73;;;10.80;99.90;;;;;;5099925;27;20296;-31
2023/05/25 01:39:43;;;;;;;6.23;2.73;;;10.80;99.90;;;;;;5128061;27;20168;-31
2023/05/25 01:42:08;;;;;;;10.20;3.10;;;10.80;99.90;;;;;;5102329;27;20190;-31
2023/05/25 01:44:36;;;;;;;8.37;3.03;;;10.80;99.90;;;;;;5112139;27;20199;-31
2023/05/25 01:47:14;;;;;;;5.83;2.67;;;10.70;99.90;;;;;;5118052;27;20183;-31
2023/05/25 01:49:52;;;;;;;10.23;3.27;;;10.70;99.90;;;;;;5092848;28;20190;-31
2023/05/25 01:52:23;;;;;;;5.33;2.97;;;10.70;99.90;;;;;;5097177;28;20203;-30
2023/05/25 01:55:12;;;;;;;7.93;2.83;;;10.60;99.90;;;;;;5097284;28;20197;-31
2023/05/25 01:57:41;;;;;;;9.67;3.17;;;10.60;99.90;;;;;;5097221;28;20263;-31
2023/05/25 02:00:10;;;;;;;6.97;3.07;;;10.50;99.90;;;;;;5097804;28;20169;-32
2023/05/25 02:02:44;;;;;;;7.83;2.73;;;10.50;99.90;;;;;;5115981;27;20183;-31
2023/05/25 02:05:10;;;;;;;5.43;2.83;;;10.50;99.90;;;;;;5084688;28;20251;-31
2023/05/25 02:07:36;;;;;;;8.93;3.40;;;10.40;99.90;;;;;;5097023;28;20185;-31
2023/05/25 02:10:03;;;;;;;6.00;2.77;;;10.40;99.90;;;;;;5101085;27;20172;-31
2023/05/25 02:12:28;;;;;;;6.43;3.00;;;10.40;99.90;;;;;;5108381;28;20253;-31
2023/05/25 02:14:54;;;;;;;8.63;3.50;;;10.40;99.90;;;;;;5102271;27;20211;-32
2023/05/25 02:17:20;;;;;;;6.20;2.80;;;10.40;99.90;;;;;;5105852;28;20172;-31
2023/05/25 02:19:48;;;;;;;5.80;3.00;;;10.40;99.90;;;;;;5095182;27;20186;-31
2023/05/25 02:22:15;;;;;;;10.20;3.13;;;10.40;99.90;;;;;;5100071;27;20185;-30
2023/05/25 02:24:41;;;;;;;9.07;3.20;;;10.40;99.90;;;;;;5116963;27;20205;-31
2023/05/25 02:27:07;;;;;;;10.80;3.40;;;10.40;99.90;;;;;;5099947;27;20187;-30
2023/05/25 02:29:33;;;;;;;6.20;3.37;;;10.40;99.90;;;;;;5087594;28;20180;-31
2023/05/25 02:31:59;;;;;;;12.37;3.30;;;10.40;99.90;;;;;;5116361;27;20202;-31
2023/05/25 02:34:25;;;;;;;8.17;3.60;;;10.40;99.90;;;;;;5110696;28;20196;-31
2023/05/25 02:36:51;;;;;;;7.40;3.50;;;10.40;99.90;;;;;;5110203;27;20179;-32
2023/05/25 02:39:17;;;;;;;6.90;3.43;;;10.40;99.90;;;;;;5104716;27;20183;-31
2023/05/25 02:41:43;;;;;;;9.83;3.17;;;10.40;99.90;;;;;;5092966;28;20172;-31
2023/05/25 02:44:09;;;;;;;6.57;3.50;;;10.30;99.90;;;;;;5126717;27;20204;-31
2023/05/25 02:46:35;;;;;;;7.87;3.20;;;10.30;99.90;;;;;;5087531;28;20177;-31
2023/05/25 02:49:00;;;;;;;6.90;3.50;;;10.30;99.90;;;;;;5095919;28;20246;-31
2023/05/25 02:51:27;;;;;;;6.13;3.70;;;10.30;99.90;;;;;;5081059;27;20327;-31
2023/05/25 02:53:55;;;;;;;6.53;3.20;;;10.30;99.90;;;;;;5109299;28;20208;-31
2023/05/25 02:56:22;;;;;;;6.87;3.00;;;10.20;99.90;;;;;;5113904;27;20187;-31
2023/05/25 02:58:49;;;;;;;5.47;3.27;;;10.20;99.90;;;;;;5115171;27;20177;-32
2023/05/25 03:01:24;;;;;;;7.83;3.67;;;10.20;99.90;;;;;;5096562;28;20176;-31
2023/05/25 03:03:53;;;;;;;9.20;3.50;;;10.20;99.90;;;;;;5094073;27;20196;-32
2023/05/25 03:06:21;;;;;;;9.43;3.40;;;10.20;99.90;;;;;;5116353;27;20243;-31
2023/05/25 03:08:50;;;;;;;8.70;3.63;;;10.20;99.90;;;;;;5098679;27;20180;-32
2023/05/25 03:11:17;;;;;;;5.73;3.30;;;10.10;99.90;;;;;;5114652;27;20179;-32
2023/05/25 03:13:44;;;;;;;9.43;3.63;;;10.10;99.90;;;;;;5095410;28;20252;-31
2023/05/25 03:16:11;;;;;;;10.47;3.23;;;10.10;99.90;;;;;;5093845;27;20174;-31
2023/05/25 03:18:37;;;;;;;6.90;3.67;;;10.10;99.90;;;;;;5114068;27;20167;-31
2023/05/25 03:21:03;;;;;;;6.73;3.60;;;10.10;99.90;;;;;;5079795;27;20175;-31
2023/05/25 03:23:30;;;;;;;10.97;3.43;;;10.10;99.90;;;;;;5115216;27;20240;-32
2023/05/25 03:25:57;;;;;;;8.87;3.80;;;10.00;99.90;;;;;;5094722;28;20176;-32
2023/05/25 03:28:23;;;;;;;8.60;3.97;;;10.00;99.90;;;;;;5115378;27;20186;-31
2023/05/25 03:30:49;;;;;;;6.20;3.30;;;10.00;99.90;;;;;;5111262;27;20172;-31
2023/05/25 03:33:16;;;;;;;9.00;3.23;;;10.00;99.90;;;;;;5088115;28;20302;-32
2023/05/25 03:35:46;;;;;;;7.27;3.40;;;9.90;99.90;;;;;;5095578;28;20178;-32
2023/05/25 03:38:11;;;;;;;6.47;3.57;;;9.90;99.90;;;;;;5114464;27;20175;-31
2023/05/25 03:40:37;;;;;;;5.10;2.87;;;9.90;99.90;;;;;;5097963;27;20259;-32
2023/05/25 03:43:04;;;;;;;10.37;4.10;;;9.90;99.90;;;;;;5103505;27;20203;-31
2023/05/25 03:45:32;;;;;;;8.80;4.10;;;9.80;99.90;;;;;;5109944;27;20215;-31
2023/05/25 03:47:59;;;;;;;6.53;3.67;;;9.80;99.90;;;;;;5115649;27;20227;-31
2023/05/25 03:50:26;;;;;;;4.60;3.60;;;9.80;99.90;;;;;;5135189;27;20180;-31
2023/05/25 03:52:52;;;;;;;8.87;4.17;;;9.70;99.90;;;;;;5126915;27;20207;-31
2023/05/25 03:55:18;;;;;;;10.33;3.67;;;9.70;99.90;;;;;;5111014;28;20638;-31
2023/05/25 03:57:44;;;;;;;10.50;3.83;;;9.60;99.90;;;;;;5111234;27;20194;-31
2023/05/25 04:00:11;;;;;;;6.43;3.37;;;9.60;99.90;;;;;;5098958;27;20680;-32
2023/05/25 04:02:41;;;;;;;6.33;3.60;;;9.50;99.90;;;;;;5127112;27;20171;-32
2023/05/25 04:05:07;;;;;;;8.13;3.80;;;9.50;99.90;;;;;;5101845;28;20232;-31
2023/05/25 04:07:35;;;;;;;7.30;3.47;;;9.40;99.90;;;;;;5095428;28;20172;-32
2023/05/25 04:10:02;;;;;;;7.97;3.97;;;9.40;99.90;;;;;;5077400;28;20183;-31
2023/05/25 04:12:28;;;;;;;10.13;4.10;;;9.50;99.90;;;;;;5095123;28;20286;-31
2023/05/25 04:14:55;;;;;;;9.33;3.77;;;9.50;99.90;;;;;;5109887;28;20309;-32
2023/05/25 04:17:23;;;;;;;9.30;3.87;;;9.50;99.90;;;;;;5122277;27;20175;-31
2023/05/25 04:19:50;;;;;;;7.80;3.80;;;9.50;99.90;;;;;;5095459;28;20171;-31
2023/05/25 04:22:17;;;;;;;10.43;4.17;;;9.50;99.90;;;;;;5113058;28;20296;-31
2023/05/25 04:24:45;;;;;;;8.97;4.00;;;9.60;99.90;;;;;;5112476;28;20195;-32
2023/05/25 04:27:13;;;;;;;10.10;3.97;;;9.60;99.90;;;;;;5097435;28;20179;-32
2023/05/25 04:29:40;;;;;;;10.37;4.33;;;9.70;99.90;;;;;;5093856;28;20249;-31
2023/05/25 04:32:36;;;;;;;7.63;3.83;;;9.70;99.90;;;;;;5093825;28;20575;-31
2023/05/25 04:35:35;;;;;;;7.87;3.73;;;9.70;99.90;;;;;;5099553;28;20210;-32
2023/05/25 04:38:03;;;;;;;7.63;4.10;;;9.70;99.90;;;;;;5112409;28;20202;-31
2023/05/25 04:40:32;;;;;;;10.07;4.50;;;9.70;99.90;;;;;;5092131;28;20233;-32
2023/05/25 04:42:58;;;;;;;9.57;4.10;;;9.80;99.90;;;;;;5077002;28;20208;-31
2023/05/25 04:45:24;;;;;;;10.20;4.57;;;9.80;99.90;;;;;;5099546;28;20176;-31
2023/05/25 04:47:51;;;;;;;14.37;4.63;;;9.80;99.90;;;;;;5111250;28;20179;-31
2023/05/25 04:50:17;;;;;;;9.10;4.87;;;9.90;99.90;;;;;;5115069;28;20179;-31
2023/05/25 04:52:43;;;;;;;9.07;4.27;;;9.90;99.90;;;;;;5108998;28;20196;-31
2023/05/25 04:55:10;;;;;;;8.47;4.03;;;10.00;99.90;;;;;;5111044;27;20171;-32
2023/05/25 04:57:38;;;;;;;7.10;3.73;;;10.00;99.90;;;;;;5116747;27;20175;-32
2023/05/25 05:00:08;;;;;;;9.37;4.23;;;10.10;99.90;;;;;;5111416;28;20179;-32
2023/05/25 05:02:35;;;;;;;12.40;4.60;;;10.20;99.90;;;;;;5108599;28;20175;-31
2023/05/25 05:05:01;;;;;;;8.67;4.20;;;10.30;99.90;;;;;;5102118;28;20200;-31
2023/05/25 05:07:27;;;;;;;9.93;4.10;;;10.30;99.90;;;;;;5095637;28;20180;-31
2023/05/25 05:09:54;;;;;;;8.87;4.43;;;10.40;99.90;;;;;;5114836;28;20222;-31
2023/05/25 05:12:20;;;;;;;9.63;4.37;;;10.40;99.90;;;;;;5114353;27;20257;-31
2023/05/25 05:14:49;;;;;;;8.77;3.90;;;10.40;99.90;;;;;;5106429;27;20354;-32
2023/05/25 05:17:16;;;;;;;11.57;4.37;;;10.50;99.90;;;;;;5080739;28;20183;-31
2023/05/25 05:19:43;;;;;;;11.03;4.43;;;10.50;99.90;;;;;;5097273;28;20180;-32
2023/05/25 05:22:12;;;;;;;5.57;3.70;;;10.60;99.90;;;;;;5097484;28;20195;-32
2023/05/25 05:24:38;;;;;;;9.63;3.90;;;10.70;99.90;;;;;;5088231;27;20195;-32
2023/05/25 05:27:04;;;;;;;8.70;4.60;;;10.80;99.90;;;;;;5117136;27;20265;-31
2023/05/25 05:29:41;;;;;;;10.23;5.30;;;10.90;99.90;;;;;;5102962;27;20167;-32
2023/05/25 05:32:07;;;;;;;11.23;4.70;;;11.00;99.90;;;;;;5098699;27;20204;-31
2023/05/25 05:34:35;;;;;;;14.20;4.70;;;11.10;99.90;;;;;;5081519;28;20191;-33
2023/05/25 05:37:10;;;;;;;7.57;4.03;;;11.10;99.90;;;;;;5097751;28;20173;-31
2023/05/25 05:39:36;;;;;;;10.20;4.03;;;11.30;99.90;;;;;;5097223;28;20310;-31
2023/05/25 05:42:03;;;;;;;9.57;4.70;;;11.40;99.90;;;;;;5097782;28;20266;-32
2023/05/25 05:44:29;;;;;;;7.73;4.13;;;11.50;99.90;;;;;;5106218;28;20199;-32
2023/05/25 05:46:59;;;;;;;10.80;4.67;;;11.70;99.90;;;;;;5117617;27;20217;-32
2023/05/25 05:49:29;;;;;;;9.60;4.60;;;11.80;99.90;;;;;;5134903;27;20178;-32
2023/05/25 05:51:55;;;;;;;12.07;4.83;;;11.90;99.90;;;;;;5097350;27;20188;-31
2023/05/25 05:54:21;;;;;;;12.57;4.70;;;12.00;99.90;;;;;;5113134;27;20194;-32
2023/05/25 05:56:47;;;;;;;8.60;4.43;;;12.10;99.90;;;;;;5096909;27;20175;-32
2023/05/25 05:59:15;;;;;;;10.30;4.60;;;12.20;99.90;;;;;;5104702;27;20170;-32
2023/05/25 06:01:41;;;;;;;8.70;4.37;;;12.40;99.90;;;;;;5106272;27;20191;-31
2023/05/25 06:04:08;;;;;;;10.00;5.10;;;12.60;99.90;;;;;;5090309;27;20201;-31
2023/05/25 06:06:34;;;;;;;11.27;4.57;;;12.70;99.90;;;;;;5098108;27;20228;-32
2023/05/25 06:09:03;;;;;;;9.57;4.40;;;12.70;99.90;;;;;;5114439;27;20175;-32
2023/05/25 06:11:30;;;;;;;13.43;5.00;;;12.70;99.90;;;;;;5098682;28;20180;-32
2023/05/25 06:13:56;;;;;;;8.83;4.73;;;12.70;99.90;;;;;;5099160;27;20218;-32
2023/05/25 06:16:21;;;;;;;8.40;4.50;;;12.80;99.90;;;;;;5105333;28;20184;-32
2023/05/25 06:18:47;;;;;;;8.80;4.40;;;12.80;99.90;;;;;;5097243;28;20195;-31
2023/05/25 06:21:13;;;;;;;12.77;5.13;;;12.80;99.90;;;;;;5080897;28;20183;-31
2023/05/25 06:23:39;;;;;;;7.87;4.47;;;12.80;99.90;;;;;;5080590;28;20262;-32
2023/05/25 06:26:05;;;;;;;8.90;5.20;;;12.90;99.90;;;;;;5097118;28;20328;-32
2023/05/25 06:28:31;;;;;;;12.00;4.40;;;13.00;99.90;;;;;;5096970;28;20183;-32
2023/05/25 06:30:58;;;;;;;7.73;4.47;;;13.10;99.90;;;;;;5096872;28;20638;-32
2023/05/25 06:33:23;;;;;;;11.67;4.67;;;13.10;99.90;;;;;;5096797;28;20219;-32
2023/05/25 06:35:49;;;;;;;11.03;5.03;;;13.00;99.90;;;;;;5110176;27;20198;-32
2023/05/25 06:38:15;;;;;;;10.63;5.30;;;13.00;99.90;;;;;;5114405;27;20175;-36
2023/05/25 06:40:41;;;;;;;8.80;5.30;;;13.10;99.90;;;;;;5081241;28;20204;-34
2023/05/25 06:43:07;;;;;;;10.60;4.60;;;13.00;99.90;;;;;;5096830;27;20195;-33
2023/05/25 06:45:51;;;;;;;11.97;4.90;;;13.20;99.90;;;;;;5097939;28;20266;-32
2023/05/25 06:48:18;;;;;;;8.43;4.83;;;13.30;99.90;;;;;;5094277;28;20180;-34
2023/05/25 06:50:45;;;;;;;11.83;4.70;;;13.30;99.90;;;;;;5112127;27;20170;-34
2023/05/25 06:53:11;;;;;;;8.03;4.60;;;13.50;99.90;;;;;;5117912;27;20206;-34
2023/05/25 06:55:37;;;;;;;10.10;5.00;;;13.60;99.90;;;;;;5139899;27;20262;-35
2023/05/25 06:58:03;;;;;;;11.47;5.20;;;13.70;99.90;;;;;;5112660;27;20175;-36
2023/05/25 07:00:29;;;;;;;11.03;5.07;;;13.80;99.90;;;;;;5141136;27;20181;-33
2023/05/25 07:02:55;;;;;;;11.57;5.50;;;14.00;99.90;;;;;;5123976;27;20179;-33
2023/05/25 07:05:21;;;;;;;8.70;5.00;;;14.20;99.90;;;;;;5122659;27;20182;-34
2023/05/25 07:07:46;;;;;;;7.87;4.63;;;14.20;99.90;;;;;;5124088;27;20175;-33
2023/05/25 07:10:12;;;;;;;9.57;5.10;;;14.20;99.90;;;;;;5106555;27;20182;-33
2023/05/25 07:12:38;;;;;;;14.33;5.47;;;14.30;99.90;;;;;;5142914;27;20660;-33
2023/05/25 07:15:05;;;;;;;12.53;5.47;;;14.30;99.90;;;;;;5098107;27;20191;-32
2023/05/25 07:17:30;;;;;;;11.90;4.93;;;14.30;99.90;;;;;;5122186;27;20175;-34
2023/05/25 07:19:56;;;;;;;10.07;5.00;;;14.30;99.90;;;;;;5139809;27;20207;-35
2023/05/25 07:22:22;;;;;;;10.87;5.50;;;14.30;99.90;;;;;;5104419;27;20166;-34
2023/05/25 07:24:49;;;;;;;10.53;5.90;;;14.30;99.90;;;;;;5122860;27;20198;-36
2023/05/25 07:27:15;;;;;;;13.87;5.97;;;14.30;99.90;;;;;;5103841;27;20166;-36
2023/05/25 07:29:41;;;;;;;10.70;4.97;;;14.20;99.90;;;;;;5141192;27;20171;-34
2023/05/25 07:32:07;;;;;;;11.97;5.33;;;14.20;99.90;;;;;;5106585;27;20178;-36
2023/05/25 07:34:33;;;;;;;12.73;5.40;;;14.20;99.90;;;;;;5130254;27;20205;-37
2023/05/25 07:36:59;;;;;;;11.67;5.27;;;14.20;99.90;;;;;;5119745;27;20176;-33
2023/05/25 07:39:26;;;;;;;11.73;5.77;;;14.40;99.90;;;;;;5107086;27;20178;-36
2023/05/25 07:41:51;;;;;;;9.83;5.27;;;14.50;99.90;;;;;;5143029;27;20172;-36
2023/05/25 07:44:17;;;;;;;12.00;5.57;;;14.60;99.90;;;;;;5119478;27;20340;-35
2023/05/25 07:46:43;;;;;;;7.97;4.40;;;14.70;99.90;;;;;;5121101;27;20210;-35
2023/05/25 07:49:14;;;;;;;10.47;5.50;;;14.90;99.90;;;;;;5089096;28;20176;-34
2023/05/25 07:51:44;;;;;;;13.03;6.30;;;15.00;99.90;;;;;;5091564;28;20180;-34
2023/05/25 07:54:10;;;;;;;10.70;5.50;;;15.20;99.90;;;;;;5110372;28;20389;-34
2023/05/25 07:56:37;;;;;;;10.90;5.80;;;15.30;99.90;;;;;;5092012;28;20641;-34
2023/05/25 07:59:02;;;;;;;9.47;6.60;;;15.50;99.90;;;;;;5092486;28;20175;-37
2023/05/25 08:01:28;;;;;;;12.13;5.60;;;15.60;99.90;;;;;;5092340;28;20300;-35
2023/05/25 08:03:54;;;;;;;10.30;6.20;;;15.70;99.90;;;;;;5108276;28;20303;-36
2023/05/25 08:06:20;;;;;;;11.10;5.70;;;15.90;99.90;;;;;;5110975;28;20172;-33
2023/05/25 08:08:46;;;;;;;11.77;6.90;;;16.10;99.90;;;;;;5092795;28;20184;-35
2023/05/25 08:11:14;;;;;;;12.23;5.87;;;16.10;99.90;;;;;;5111436;28;20175;-34
2023/05/25 08:13:39;;;;;;;15.17;6.20;;;16.00;99.90;;;;;;5092878;28;20216;-36
2023/05/25 08:16:05;;;;;;;12.80;6.13;;;15.90;99.90;;;;;;5111237;28;20183;-35
2023/05/25 08:18:31;;;;;;;11.93;5.97;;;15.80;99.90;;;;;;5111949;28;20262;-36
2023/05/25 08:20:57;;;;;;;9.80;5.53;;;15.90;99.90;;;;;;5093715;28;20214;-36
2023/05/25 08:23:23;;;;;;;12.27;6.03;;;15.90;99.90;;;;;;5093241;28;20332;-33
2023/05/25 08:25:48;;;;;;;9.30;6.03;;;16.00;99.90;;;;;;5076871;28;20183;-35
2023/05/25 08:28:14;;;;;;;12.77;6.03;;;16.00;99.90;;;;;;5111886;28;20191;-35
2023/05/25 08:30:42;;;;;;;12.82;6.38;;;16.10;99.90;;;;;;5076762;28;20187;-38
2023/05/25 08:33:09;;;;;;;11.23;6.57;;;16.20;99.90;;;;;;5093658;28;20291;-34
2023/05/25 08:35:38;;;;;;;11.83;6.07;;;16.20;99.90;;;;;;5093268;28;20171;-36
2023/05/25 08:38:03;;;;;;;10.40;6.10;;;16.20;99.90;;;;;;5093872;28;20262;-35
2023/05/25 08:40:30;;;;;;;11.13;6.47;;;16.10;99.90;;;;;;5076851;28;20740;-34
2023/05/25 08:42:55;;;;;;;12.77;6.60;;;16.00;99.90;;;;;;5078873;28;20183;-36
2023/05/25 08:45:21;;;;;;;10.53;6.50;;;16.00;99.90;;;;;;5115634;28;20204;-36
2023/05/25 08:47:50;;;;;;;13.40;6.90;;;16.10;99.90;;;;;;5115901;28;20176;-35
2023/05/25 08:50:16;;;;;;;10.80;6.27;;;16.10;99.90;;;;;;5115937;28;20179;-36
2023/05/25 08:52:45;;;;;;;10.57;6.93;;;16.10;99.90;;;;;;5115653;28;20210;-35
2023/05/25 08:55:13;;;;;;;12.90;6.77;;;16.20;99.90;;;;;;5097360;28;20202;-36
2023/05/25 08:58:06;;;;;;;10.07;6.43;;;16.20;99.90;;;;;;5115858;28;20164;-34
2023/05/25 09:00:35;;;;;;;12.88;7.15;;;16.40;99.90;;;;;;5097356;28;20183;-36
2023/05/25 09:03:14;;;;;;;13.95;6.07;;;16.60;99.90;;;;;;5081948;28;20199;-37
2023/05/25 09:05:40;;;;;;;11.13;6.32;;;16.60;99.90;;;;;;5126671;27;20253;-34
2023/05/25 09:08:07;;;;;;;12.15;6.15;;;16.70;99.90;;;;;;5139410;27;20652;-34
2023/05/25 09:10:37;;;;;;;9.37;6.30;;;16.90;99.90;;;;;;5157454;27;20183;-36
2023/05/25 09:13:03;;;;;;;10.50;6.40;;;16.90;99.90;;;;;;5135846;27;20218;-35
2023/05/25 09:15:30;;;;;;;11.35;6.00;;;17.00;99.90;;;;;;5096789;28;20184;-38
2023/05/25 09:17:56;;;;;;;12.75;6.40;;;17.20;99.90;;;;;;5115516;28;20172;-36
2023/05/25 09:20:23;;;;;;;14.40;6.40;;;17.30;99.90;;;;;;5096932;28;20252;-38
2023/05/25 09:22:49;;;;;;;10.95;6.75;;;17.40;99.90;;;;;;5079874;28;20176;-37
2023/05/25 09:25:21;;;;;;;13.80;6.65;;;17.40;99.90;;;;;;5114626;28;20190;-34
2023/05/25 09:27:48;;;;;;;12.40;6.80;;;17.40;99.90;;;;;;5114763;28;20182;-37
2023/05/25 09:30:14;;;;;;;9.82;5.93;;;17.40;99.90;;;;;;5096128;28;20186;-37
2023/05/25 09:32:40;;;;;;;12.82;6.65;;;17.40;99.90;;;;;;5096305;28;20202;-36
2023/05/25 09:35:14;;;;;;;11.25;6.65;;;17.30;99.90;;;;;;5095849;28;20172;-35
2023/05/25 09:37:40;;;;;;;9.95;6.40;;;17.30;99.90;;;;;;5095806;28;20171;-34
2023/05/25 09:40:08;;;;;;;11.93;7.22;;;17.40;99.90;;;;;;5095906;28;20215;-36
2023/05/25 09:42:34;;;;;;;12.68;6.10;;;17.50;99.90;;;;;;5095723;28;20201;-36
2023/05/25 09:45:01;;;;;;;9.13;6.07;;;17.60;99.90;;;;;;5123202;27;20191;-34
2023/05/25 09:47:27;;;;;;;11.23;6.40;;;17.90;99.90;;;;;;5095825;28;20179;-36
2023/05/25 09:49:54;;;;;;;12.50;6.82;;;18.20;99.90;;;;;;5095849;28;20180;-35
2023/05/25 09:52:21;;;;;;;9.20;6.20;;;18.40;99.90;;;;;;5078463;28;20214;-34
2023/05/25 09:54:48;;;;;;;11.00;5.70;;;18.60;99.90;;;;;;5113767;28;20218;-34
2023/05/25 09:57:15;;;;;;;12.00;5.88;;;18.70;99.90;;;;;;5114355;28;20172;-36
2023/05/25 09:59:42;;;;;;;8.93;6.22;;;18.50;99.90;;;;;;5095591;28;20176;-36
2023/05/25 10:02:08;;;;;;;6.70;5.28;;;18.60;99.90;;;;;;5113628;28;20176;-34
2023/05/25 10:04:34;;;;;;;7.55;5.35;;;18.70;99.90;;;;;;5095288;28;20256;-35
2023/05/25 10:07:00;;;;;;;8.55;6.03;;;18.80;99.90;;;;;;5112177;28;20172;-36
2023/05/25 10:09:29;;;;;;;9.02;5.72;;;18.90;99.90;;;;;;5095511;28;20180;-35
2023/05/25 10:11:58;;;;;;;8.48;5.78;;;18.90;99.90;;;;;;5094979;28;20191;-33
2023/05/25 10:14:28;;;;;;;9.35;5.45;;;18.80;99.90;;;;;;5078755;28;20212;-34
2023/05/25 10:16:56;;;;;;;8.82;5.97;;;18.90;99.90;;;;;;5113403;28;20187;-34
2023/05/25 10:19:41;;;;;;;8.32;5.68;;;19.00;99.90;;;;;;5113330;28;20285;-35
2023/05/25 10:22:20;;;;;;;8.57;5.32;;;19.00;99.90;;;;;;5095143;28;20247;-34
2023/05/25 10:24:58;;;;;;;7.82;5.75;;;19.00;99.90;;;;;;5094789;28;20196;-35
2023/05/25 10:27:30;;;;;;;7.18;5.88;;;19.10;99.90;;;;;;5095251;28;20173;-34
2023/05/25 10:29:58;;;;;;;6.72;5.57;;;19.20;99.90;;;;;;5078445;28;20176;-36
2023/05/25 10:32:26;;;;;;;9.10;5.57;;;19.20;99.90;;;;;;5078087;28;20214;-36
2023/05/25 10:34:52;;;;;;;7.78;5.60;;;19.20;99.90;;;;;;5077623;28;20286;-37
2023/05/25 10:37:18;;;;;;;11.90;6.55;;;19.30;99.90;;;;;;5094897;28;20179;-37
2023/05/25 10:39:45;;;;;;;7.05;5.50;;;19.50;99.90;;;;;;5094982;28;20175;-36
2023/05/25 10:42:11;;;;;;;9.20;6.13;;;19.70;99.90;;;;;;5094582;28;20264;-36
2023/05/25 10:44:40;;;;;;;10.38;6.10;;;19.80;99.90;;;;;;5121843;27;20192;-34
2023/05/25 10:47:07;;;;;;;7.60;5.65;;;19.90;99.90;;;;;;5112840;28;20188;-34
2023/05/25 10:49:49;;;;;;;6.10;5.15;;;20.00;99.90;;;;;;5094590;28;20168;-38
2023/05/25 10:52:17;;;;;;;10.32;6.28;;;20.10;99.90;;;;;;5112789;28;20194;-35
2023/05/25 10:54:45;;;;;;;11.45;6.05;;;20.10;99.90;;;;;;5094355;28;20200;-35
2023/05/25 10:57:16;;;;;;;9.48;6.00;;;20.00;99.90;;;;;;5099984;27;20183;-33
2023/05/25 10:59:47;;;;;;;9.18;6.10;;;20.00;99.90;;;;;;5109220;27;20187;-34
2023/05/25 11:02:14;;;;;;;9.30;5.60;;;20.20;99.90;;;;;;5085451;27;20228;-36
2023/05/25 11:04:40;;;;;;;9.70;5.50;;;20.10;99.90;;;;;;5098097;27;20196;-36
2023/05/25 11:07:12;;;;;;;7.47;5.55;;;20.10;99.90;;;;;;5120592;27;20183;-34
2023/05/25 11:09:42;;;;;;;6.32;4.80;;;20.20;99.90;;;;;;5105179;27;20184;-37
2023/05/25 11:12:19;;;;;;;8.73;4.93;;;20.20;99.90;;;;;;5117971;27;20180;-37
2023/05/25 11:15:10;;;;;;;9.45;5.05;;;20.20;99.90;;;;;;5103785;27;20210;-37
2023/05/25 11:17:57;;;;;;;8.07;5.72;;;20.30;99.90;;;;;;5081536;28;20186;-36
2023/05/25 11:20:27;;;;;;;6.43;5.18;;;20.40;99.90;;;;;;5111104;27;20181;-35
2023/05/25 11:22:53;;;;;;;7.95;4.82;;;20.30;99.90;;;;;;5099010;27;20183;-34
2023/05/25 11:25:41;;;;;;;7.35;5.03;;;20.30;99.90;;;;;;5124190;27;20175;-34
2023/05/25 11:28:10;;;;;;;9.27;5.60;;;20.50;99.90;;;;;;5111934;27;20168;-34
2023/05/25 11:30:38;;;;;;;8.23;5.10;;;20.50;99.90;;;;;;5110584;27;20175;-36
2023/05/25 11:33:06;;;;;;;8.93;5.22;;;20.60;99.90;;;;;;5112445;27;20207;-34
2023/05/25 11:35:32;;;;;;;9.10;5.10;;;20.60;99.90;;;;;;5104677;27;20176;-34
2023/05/25 11:37:59;;;;;;;7.50;5.07;;;20.60;99.90;;;;;;5106659;27;20180;-34
2023/05/25 11:40:30;;;;;;;8.18;5.03;;;20.60;99.90;;;;;;5100408;28;20168;-36
2023/05/25 11:42:59;;;;;;;9.55;5.43;;;20.60;99.90;;;;;;5111453;27;20179;-35
2023/05/25 11:45:28;;;;;;;8.23;5.25;;;20.60;99.90;;;;;;5097191;28;20179;-36
2023/05/25 11:47:53;;;;;;;5.97;4.88;;;20.50;99.90;;;;;;5112017;28;20183;-35
2023/05/25 11:50:20;;;;;;;8.50;4.80;;;20.50;99.90;;;;;;5077312;27;20180;-36
2023/05/25 11:52:46;;;;;;;9.15;5.43;;;20.60;99.90;;;;;;5095269;27;20290;-36
2023/05/25 11:55:15;;;;;;;6.57;5.13;;;20.60;99.90;;;;;;5095589;28;20183;-37
2023/05/25 11:57:41;;;;;;;7.63;5.10;;;20.60;99.90;;;;;;5106202;27;20179;-33
2023/05/25 12:00:10;;;;;;;5.47;4.82;;;20.50;99.90;;;;;;5112031;27;20170;-31
2023/05/25 12:02:40;;;;;;;10.13;5.22;;;20.60;99.90;;;;;;5132055;27;20179;-37
2023/05/25 12:05:07;;;;;;;6.35;4.90;;;20.60;99.90;;;;;;5096216;27;20183;-35
2023/05/25 12:07:34;;;;;;;10.10;5.60;;;20.50;99.90;;;;;;5108227;27;20182;-35
2023/05/25 12:10:05;;;;;;;8.23;5.47;;;20.50;99.90;;;;;;5077403;28;20276;-34
2023/05/25 12:12:46;;;;;;;8.13;5.15;;;20.50;99.90;;;;;;5112239;28;20195;-36
2023/05/25 12:15:30;;;;;;;6.97;5.07;;;20.60;99.90;;;;;;5101712;28;20278;-34
2023/05/25 12:17:56;;;;;;;7.90;4.70;;;20.70;99.90;;;;;;5094104;28;20618;-35
2023/05/25 12:20:24;;;;;;;9.05;5.25;;;20.60;99.90;;;;;;5112273;28;20182;-36
2023/05/25 12:22:51;;;;;;;6.70;4.78;;;20.70;99.90;;;;;;5077235;28;20241;-35
2023/05/25 12:25:20;;;;;;;7.07;5.25;;;20.80;99.90;;;;;;5119041;28;20224;-35
2023/05/25 12:27:46;;;;;;;9.00;4.93;;;20.70;99.90;;;;;;5097155;28;20188;-34
2023/05/25 12:30:13;;;;;;;8.73;5.72;;;20.80;99.90;;;;;;5096923;28;20186;-33
2023/05/25 12:32:53;;;;;;;7.30;5.13;;;20.90;99.90;;;;;;5113771;28;20194;-36
2023/05/25 12:35:21;;;;;;;6.28;5.10;;;20.90;99.90;;;;;;5106813;28;20175;-34
2023/05/25 12:37:48;;;;;;;7.97;5.25;;;20.90;99.90;;;;;;5092226;28;20196;-34
2023/05/25 12:40:19;;;;;;;6.57;4.80;;;20.90;99.90;;;;;;5099721;28;20178;-34
2023/05/25 12:42:54;;;;;;;8.25;5.18;;;21.10;99.90;;;;;;5114168;28;20167;-33
2023/05/25 12:45:19;;;;;;;6.93;5.60;;;21.10;99.90;;;;;;5076031;28;20179;-35
2023/05/25 12:47:46;;;;;;;7.05;5.30;;;21.20;99.90;;;;;;5092858;28;20180;-35
2023/05/25 12:50:14;;;;;;;6.38;4.32;;;21.20;99.90;;;;;;5091930;28;20213;-35